Time;durP1;ratioP1;P1;durP2;ratioP2;P2;SDS_P1;SDS_P2;PMS_P1;PMS_P2;Temp;Humidity;BMP_temperature;BMP_pressure;BME280_temperature;BME280_humidity;BME280_pressure;Samples;Min_cycle;Max_cycle;Signal;HPM_P1;HPM_P2
2023/01/25 00:00:48;;;;;;;41.65;21.23;;;;;;;3.01;75.79;101472.66;4261057;33;34321;-82
2023/01/25 00:03:15;;;;;;;40.17;20.65;;;;;;;2.28;79.24;101486.47;4260899;33;34413;-81
2023/01/25 00:05:43;;;;;;;36.63;19.98;;;;;;;2.25;80.02;101487.06;4260890;33;33857;-81
2023/01/25 00:08:10;;;;;;;39.78;19.77;;;;;;;2.93;78.27;101478.69;4260793;33;34258;-82
2023/01/25 00:10:38;;;;;;;44.80;23.33;;;;;;;5.35;69.65;101479.91;4260949;33;33456;-82
2023/01/25 00:13:05;;;;;;;40.58;21.52;;;;;;;8.16;56.63;101474.13;4260744;33;33536;-84
2023/01/25 00:15:33;;;;;;;27.50;17.08;;;;;;;9.29;51.79;101481.31;4260564;33;33684;-83
2023/01/25 00:18:01;;;;;;;33.58;17.98;;;;;;;9.60;50.04;101480.28;4260692;33;34138;-82
2023/01/25 00:20:28;;;;;;;26.05;15.00;;;;;;;8.94;51.47;101475.19;4260774;33;34345;-85
2023/01/25 00:22:58;;;;;;;28.17;14.90;;;;;;;8.86;52.08;101476.28;4260893;33;33630;-85
2023/01/25 00:25:25;;;;;;;26.20;14.38;;;;;;;9.65;49.70;101478.03;4260607;33;33828;-82
2023/01/25 00:27:53;;;;;;;25.62;14.02;;;;;;;7.70;53.35;101486.72;4260365;33;33664;-83
2023/01/25 00:30:20;;;;;;;25.85;14.02;;;;;;;5.37;61.68;101498.94;4260587;33;34035;-83
2023/01/25 00:33:05;;;;;;;30.08;15.07;;;;;;;5.16;63.97;101496.91;4260496;33;33984;-83
2023/01/25 00:35:33;;;;;;;30.42;15.20;;;;;;;4.91;64.74;101503.22;4260019;33;33846;-84
2023/01/25 00:38:02;;;;;;;29.30;15.65;;;;;;;4.01;68.33;101508.25;4260233;33;34283;-85
2023/01/25 00:40:29;;;;;;;33.05;16.73;;;;;;;2.80;73.12;101511.44;4247861;33;33616;-80
2023/01/25 00:42:59;;;;;;;33.15;17.23;;;;;;;1.99;77.91;101516.62;4247782;33;33946;-80
2023/01/25 00:45:27;;;;;;;36.88;18.45;;;;;;;1.90;79.54;101516.59;4259625;33;34498;-83
2023/01/25 00:47:55;;;;;;;38.72;18.48;;;;;;;1.84;79.33;101515.94;4246971;33;34891;-80
2023/01/25 00:50:22;;;;;;;39.85;17.52;;;;;;;1.84;80.56;101500.59;4255359;33;31353;-83
2023/01/25 00:52:50;;;;;;;43.85;19.65;;;;;;;2.38;78.90;101509.72;4259871;33;33660;-83
2023/01/25 00:55:17;;;;;;;39.58;18.17;;;;;;;2.95;76.45;101502.78;4259789;33;33782;-84
2023/01/25 00:57:47;;;;;;;38.50;18.52;;;;;;;3.36;74.89;101493.25;4260281;33;33928;-82
2023/01/25 01:00:15;;;;;;;39.05;18.83;;;;;;;4.05;71.96;101502.66;4260475;33;33247;-84
2023/01/25 01:02:42;;;;;;;36.95;18.50;;;;;;;3.94;72.37;101508.41;4260410;33;33927;-81
2023/01/25 01:05:10;;;;;;;36.15;18.02;;;;;;;4.72;69.63;101507.38;4260109;33;33902;-82
2023/01/25 01:07:38;;;;;;;38.00;16.60;;;;;;;4.87;68.38;101508.84;4260036;33;33813;-81
2023/01/25 01:10:06;;;;;;;37.45;17.52;;;;;;;4.61;69.07;101502.88;4260157;33;33779;-81
2023/01/25 01:12:34;;;;;;;35.92;18.23;;;;;;;5.69;65.79;101509.59;4260181;33;34533;-84
2023/01/25 01:15:02;;;;;;;34.28;17.35;;;;;;;4.75;67.15;101499.94;4259762;33;33981;-82
2023/01/25 01:17:29;;;;;;;33.75;15.93;;;;;;;4.38;68.88;101514.38;4260403;33;33653;-83
2023/01/25 01:19:57;;;;;;;35.75;17.10;;;;;;;4.51;68.47;101512.25;4260224;33;33974;-85
2023/01/25 01:22:24;;;;;;;38.08;17.73;;;;;;;3.48;72.31;101514.09;4253678;33;33945;-82
2023/01/25 01:24:52;;;;;;;37.15;17.17;;;;;;;3.95;71.13;101515.34;4260002;33;33844;-81
2023/01/25 01:27:19;;;;;;;36.40;17.55;;;;;;;4.22;69.64;101511.09;4259779;33;33836;-84
2023/01/25 01:29:48;;;;;;;34.95;17.55;;;;;;;4.49;68.63;101507.75;4259584;33;33686;-80
2023/01/25 01:32:15;;;;;;;36.83;15.95;;;;;;;4.59;68.28;101514.66;4260018;33;33568;-82
2023/01/25 01:34:43;;;;;;;36.72;17.10;;;;;;;4.90;67.44;101519.38;4259827;33;33745;-82
2023/01/25 01:37:11;;;;;;;36.55;17.23;;;;;;;4.01;70.62;101517.59;4246844;33;33350;-80
2023/01/25 01:39:40;;;;;;;36.15;17.48;;;;;;;4.29;69.73;101517.00;4259582;33;33253;-84
2023/01/25 01:42:07;;;;;;;36.78;17.42;;;;;;;3.94;71.51;101521.25;4260147;33;33595;-85
2023/01/25 01:44:44;;;;;;;34.60;16.73;;;;;;;3.93;71.74;101521.97;4259911;33;34845;-83
2023/01/25 01:47:36;;;;;;;37.80;17.67;;;;;;;3.51;73.00;101514.38;4259618;33;33847;-84
2023/01/25 01:50:17;;;;;;;36.67;17.87;;;;;;;3.29;73.48;101517.34;4246223;33;33378;-84
2023/01/25 01:52:45;;;;;;;40.40;18.98;;;;;;;3.30;73.44;101521.75;4259102;33;34591;-85
2023/01/25 01:55:17;;;;;;;53.85;21.05;;;;;;;3.43;73.03;101515.28;4258484;33;33838;-81
2023/01/25 01:57:50;;;;;;;62.62;21.42;;;;;;;3.01;76.71;101515.28;4259133;33;33714;-80
2023/01/25 02:00:39;;;;;;;81.75;22.60;;;;;;;2.43;77.97;101525.53;4250460;33;33425;-81
2023/01/25 02:03:08;;;;;;;101.30;26.27;;;;;;;2.71;77.33;101513.97;4248867;33;34639;-81
2023/01/25 02:06:00;;;;;;;103.53;23.52;;;;;;;2.51;79.06;101515.37;4260129;33;34520;-82
2023/01/25 02:08:31;;;;;;;77.22;23.65;;;;;;;2.39;78.80;101516.62;4245129;33;33666;-82
2023/01/25 02:10:59;;;;;;;98.47;24.60;;;;;;;2.69;78.27;101520.59;4261147;33;34119;-82
2023/01/25 02:13:28;;;;;;;84.10;22.83;;;;;;;2.87;75.83;101509.66;4248622;33;34025;-83
2023/01/25 02:15:55;;;;;;;107.22;23.00;;;;;;;3.66;73.54;101509.91;4260210;33;33899;-85
2023/01/25 02:18:23;;;;;;;101.60;22.20;;;;;;;3.43;75.00;101510.16;4260624;33;33852;-83
2023/01/25 02:20:53;;;;;;;111.05;24.90;;;;;;;2.72;76.54;101498.78;4251266;33;34141;-81
2023/01/25 02:23:32;;;;;;;58.20;21.48;;;;;;;4.87;69.71;101493.44;4261482;33;33912;-82
2023/01/25 02:26:04;;;;;;;52.78;20.10;;;;;;;7.39;59.15;101483.25;4260942;33;33836;-80
2023/01/25 02:28:47;;;;;;;41.78;19.75;;;;;;;8.10;55.77;101489.12;4260015;33;33627;-84
2023/01/25 02:31:15;;;;;;;57.50;19.10;;;;;;;7.83;56.47;101478.34;4261244;33;33396;-84
2023/01/25 02:33:42;;;;;;;47.15;19.05;;;;;;;7.27;57.54;101480.56;4248006;33;33035;-80
2023/01/25 02:36:10;;;;;;;52.47;22.00;;;;;;;8.04;54.49;101480.09;4248228;33;34760;-84
2023/01/25 02:38:41;;;;;;;44.75;19.75;;;;;;;6.68;56.54;101482.34;4260675;33;34025;-82
2023/01/25 02:41:12;;;;;;;74.22;21.75;;;;;;;4.20;65.36;101494.66;4247733;33;34235;-80
2023/01/25 02:43:40;;;;;;;73.78;22.45;;;;;;;3.03;72.16;101491.66;4248388;33;33648;-80
2023/01/25 02:46:27;;;;;;;54.85;21.50;;;;;;;3.13;73.42;101483.28;4260682;33;33921;-82
2023/01/25 02:48:57;;;;;;;73.93;21.37;;;;;;;3.22;71.66;101473.94;4261231;33;33812;-84
2023/01/25 02:51:29;;;;;;;54.42;20.88;;;;;;;2.21;76.84;101489.16;4261314;33;34394;-81
2023/01/25 02:53:58;;;;;;;53.03;19.73;;;;;;;2.74;75.69;101468.22;4260846;33;33494;-81
2023/01/25 02:56:26;;;;;;;46.28;20.62;;;;;;;3.00;73.37;101463.19;4261028;33;33824;-82
2023/01/25 02:58:53;;;;;;;49.85;21.17;;;;;;;2.77;74.41;101463.41;4247655;33;33375;-84
2023/01/25 03:01:21;;;;;;;58.42;20.65;;;;;;;2.46;76.19;101462.81;4260643;33;33335;-81
2023/01/25 03:03:49;;;;;;;64.62;23.15;;;;;;;2.25;76.03;101466.59;4259877;33;33765;-81
2023/01/25 03:06:17;;;;;;;65.00;20.00;;;;;;;2.62;74.93;101454.16;4247992;33;33722;-81
2023/01/25 03:08:45;;;;;;;63.47;18.92;;;;;;;3.19;71.51;101462.47;4259759;33;33314;-84
2023/01/25 03:11:13;;;;;;;59.72;18.98;;;;;;;2.26;75.89;101463.31;4261534;33;32914;-80
2023/01/25 03:13:41;;;;;;;57.65;20.55;;;;;;;1.15;80.45;101463.44;4260949;33;33707;-82
2023/01/25 03:16:10;;;;;;;47.95;19.85;;;;;;;2.80;74.05;101458.62;4260753;33;33671;-80
2023/01/25 03:18:39;;;;;;;58.42;21.58;;;;;;;2.39;75.90;101450.13;4259709;33;33631;-83
2023/01/25 03:21:12;;;;;;;68.25;22.17;;;;;;;1.91;76.75;101451.94;4260312;33;33630;-81
2023/01/25 03:23:41;;;;;;;46.97;20.88;;;;;;;1.36;79.88;101460.66;4260608;33;33881;-80
2023/01/25 03:26:14;;;;;;;50.30;20.90;;;;;;;1.99;77.06;101456.22;4249280;33;33669;-79
2023/01/25 03:28:43;;;;;;;;;;;;;;;2.03;76.94;101455.81;4260372;33;34740;-82
2023/01/25 03:31:14;;;;;;;51.55;21.50;;;;;;;1.68;78.50;101455.53;4259936;33;33876;-82
2023/01/25 03:33:42;;;;;;;46.58;21.70;;;;;;;2.54;75.49;101449.16;4260670;33;34383;-81
2023/01/25 03:36:10;;;;;;;54.53;21.08;;;;;;;2.80;73.12;101450.94;4248622;33;35351;-81
2023/01/25 03:38:37;;;;;;;47.92;20.67;;;;;;;2.07;75.55;101460.47;4260617;33;34535;-85
2023/01/25 03:41:06;;;;;;;56.88;21.08;;;;;;;1.71;77.49;101453.28;4254809;33;33272;-84
2023/01/25 03:43:34;;;;;;;45.65;19.77;;;;;;;1.69;77.19;101459.88;4261046;33;33542;-81
2023/01/25 03:46:02;;;;;;;48.58;21.35;;;;;;;1.57;77.76;101458.59;4260062;33;33898;-83
2023/01/25 03:48:30;;;;;;;55.95;20.90;;;;;;;1.98;76.79;101464.63;4259583;33;33735;-82
2023/01/25 03:50:59;;;;;;;45.63;21.20;;;;;;;0.53;81.82;101454.16;4260973;33;33249;-84
2023/01/25 03:53:28;;;;;;;48.33;22.25;;;;;;;1.22;80.04;101463.38;4248194;33;33782;-81
2023/01/25 03:55:59;;;;;;;43.35;20.23;;;;;;;1.70;78.08;101456.59;4248179;33;33621;-81
2023/01/25 03:58:28;;;;;;;39.50;19.25;;;;;;;2.16;75.16;101450.31;4260243;33;34463;-81
2023/01/25 04:00:59;;;;;;;47.58;21.75;;;;;;;1.85;76.36;101456.41;4259858;33;34356;-81
2023/01/25 04:03:28;;;;;;;47.65;22.25;;;;;;;2.49;74.57;101446.87;4261089;33;33533;-82
2023/01/25 04:05:59;;;;;;;41.83;19.45;;;;;;;2.22;74.98;101455.16;4260864;33;33692;-80
2023/01/25 04:08:27;;;;;;;46.47;19.42;;;;;;;1.54;76.57;101448.94;4248414;33;34096;-82
2023/01/25 04:11:00;;;;;;;45.50;19.40;;;;;;;1.85;75.38;101451.28;4260897;33;36517;-84
2023/01/25 04:13:28;;;;;;;39.90;18.98;;;;;;;1.33;77.16;101452.66;4256501;33;34571;-81
2023/01/25 04:15:56;;;;;;;42.67;18.87;;;;;;;1.17;78.17;101444.09;4257758;33;34718;-81
2023/01/25 04:18:24;;;;;;;40.12;17.77;;;;;;;1.80;76.16;101449.88;4260155;33;33831;-84
2023/01/25 04:20:52;;;;;;;38.90;18.08;;;;;;;2.38;73.99;101453.47;4259251;33;33591;-83
2023/01/25 04:23:21;;;;;;;50.78;19.25;;;;;;;2.59;72.31;101444.53;4260482;33;34333;-83
2023/01/25 04:25:55;;;;;;;42.65;16.25;;;;;;;1.77;74.18;101453.94;4260175;33;33807;-82
2023/01/25 04:28:24;;;;;;;39.42;18.00;;;;;;;1.50;75.98;101448.44;4260395;33;33879;-83
2023/01/25 04:30:55;;;;;;;41.37;16.75;;;;;;;2.75;72.55;101453.03;4259921;33;33120;-81
2023/01/25 04:33:24;;;;;;;33.53;15.68;;;;;;;2.68;71.42;101455.69;4261042;33;34802;-84
2023/01/25 04:35:52;;;;;;;30.17;14.93;;;;;;;2.59;72.12;101459.88;4260297;33;33934;-82
2023/01/25 04:38:20;;;;;;;35.28;15.82;;;;;;;2.89;71.41;101456.09;4254041;33;33862;-81
2023/01/25 04:40:47;;;;;;;34.88;17.00;;;;;;;2.56;71.75;101450.22;4246691;33;33367;-82
2023/01/25 04:43:15;;;;;;;30.70;15.35;;;;;;;3.05;70.81;101456.91;4247630;33;33792;-82
2023/01/25 04:45:44;;;;;;;31.67;15.95;;;;;;;2.23;73.48;101464.66;4247867;33;33960;-82
2023/01/25 04:48:14;;;;;;;29.70;14.10;;;;;;;3.17;70.96;101449.56;4250735;33;33744;-81
2023/01/25 04:50:44;;;;;;;31.87;15.90;;;;;;;6.47;58.87;101438.53;4260927;33;33346;-85
2023/01/25 04:53:12;;;;;;;28.98;14.87;;;;;;;7.05;56.03;101434.94;4260863;33;34623;-81
2023/01/25 04:55:44;;;;;;;34.28;17.52;;;;;;;3.78;66.16;101448.69;4260524;33;34793;-83
2023/01/25 04:58:13;;;;;;;34.80;17.45;;;;;;;3.38;67.60;101450.78;4248927;33;34007;-81
2023/01/25 05:00:41;;;;;;;36.75;17.23;;;;;;;4.71;64.60;101444.88;4247178;33;33571;-82
2023/01/25 05:03:09;;;;;;;31.77;16.40;;;;;;;4.03;66.49;101455.44;4260535;33;34244;-84
2023/01/25 05:05:37;;;;;;;39.17;19.17;;;;;;;4.21;65.17;101443.53;4260470;33;34253;-83
2023/01/25 05:08:05;;;;;;;35.10;16.52;;;;;;;3.69;66.90;101456.38;4260672;33;34436;-82
2023/01/25 05:10:33;;;;;;;33.95;17.05;;;;;;;4.71;64.45;101451.66;4260769;33;33313;-80
2023/01/25 05:13:04;;;;;;;35.00;16.83;;;;;;;4.72;64.69;101445.78;4260264;33;34204;-80
2023/01/25 05:15:32;;;;;;;32.78;16.70;;;;;;;5.58;62.07;101450.25;4258697;33;34895;-80
2023/01/25 05:18:02;;;;;;;30.17;16.25;;;;;;;5.10;63.51;101454.50;4257692;33;33709;-81
2023/01/25 05:20:30;;;;;;;31.62;17.33;;;;;;;5.01;63.39;101452.75;4260235;33;32885;-81
2023/01/25 05:22:58;;;;;;;31.37;15.63;;;;;;;3.97;67.05;101456.53;4260187;33;34771;-84
2023/01/25 05:28:14;;;;;;;27.65;14.43;;;;;;;5.72;61.20;101448.16;4254519;33;33969;-82
2023/01/25 05:30:42;;;;;;;29.00;15.40;;;;;;;5.48;61.47;101451.06;4257669;33;33407;-82
2023/01/25 05:33:10;;;;;;;34.20;17.40;;;;;;;4.82;63.44;101458.69;4258928;33;32502;-82
2023/01/25 05:35:38;;;;;;;29.58;15.27;;;;;;;5.41;62.48;101458.97;4247125;33;32283;-82
2023/01/25 05:38:05;;;;;;;27.25;14.60;;;;;;;7.02;57.46;101451.78;4259565;33;33419;-83
2023/01/25 05:40:33;;;;;;;23.17;13.20;;;;;;;7.62;55.35;101452.56;4260184;33;33464;-82
2023/01/25 05:43:00;;;;;;;27.60;13.93;;;;;;;8.73;52.39;101450.28;4259629;33;33523;-80
2023/01/25 05:45:31;;;;;;;22.55;13.48;;;;;;;9.02;50.10;101449.94;4258744;33;33783;-81
2023/01/25 05:47:59;;;;;;;28.10;13.02;;;;;;;9.92;47.72;101442.94;4259086;33;33563;-81
2023/01/25 05:50:27;;;;;;;27.62;13.77;;;;;;;10.04;46.89;101428.34;4259218;33;34089;-81
2023/01/25 05:52:54;;;;;;;26.40;14.38;;;;;;;7.33;52.83;101446.66;4247452;33;33553;-82
2023/01/25 05:55:22;;;;;;;28.45;14.60;;;;;;;5.56;59.18;101446.63;4260227;33;34713;-83
2023/01/25 05:57:54;;;;;;;33.08;15.48;;;;;;;4.89;62.63;101445.69;4259932;33;34212;-83
2023/01/25 06:00:22;;;;;;;30.85;16.30;;;;;;;4.44;64.39;101452.50;4259993;33;34020;-82
2023/01/25 06:02:50;;;;;;;31.95;17.08;;;;;;;4.95;62.72;101454.75;4259288;33;33644;-80
2023/01/25 06:05:19;;;;;;;31.02;16.85;;;;;;;7.39;56.16;101453.22;4259421;33;33325;-83
2023/01/25 06:07:46;;;;;;;29.63;15.65;;;;;;;7.63;54.97;101446.63;4259799;33;34503;-81
2023/01/25 06:10:16;;;;;;;29.73;16.15;;;;;;;7.20;56.22;101440.44;4259495;33;33556;-83
2023/01/25 06:12:44;;;;;;;34.40;18.15;;;;;;;6.50;57.92;101441.38;4246647;33;32390;-82
2023/01/25 06:15:11;;;;;;;40.05;19.70;;;;;;;5.61;60.77;101459.12;4259542;33;33875;-85
2023/01/25 06:17:40;;;;;;;43.47;20.42;;;;;;;5.54;61.28;101449.06;4259724;33;33621;-83
2023/01/25 06:20:08;;;;;;;36.42;18.23;;;;;;;6.41;59.26;101456.03;4245799;33;33611;-83
2023/01/25 06:22:36;;;;;;;33.45;17.08;;;;;;;7.62;55.75;101452.56;4259478;33;35000;-83
2023/01/25 06:25:04;;;;;;;32.90;18.60;;;;;;;7.60;55.54;101459.28;4259565;33;34840;-83
2023/01/25 06:27:31;;;;;;;34.55;18.40;;;;;;;8.20;54.09;101451.25;4259413;33;33953;-81
2023/01/25 06:29:59;;;;;;;31.70;16.10;;;;;;;8.88;52.40;101460.91;4253162;33;33300;-83
2023/01/25 06:32:31;;;;;;;31.83;16.85;;;;;;;8.93;52.21;101460.50;4257105;33;33266;-84
2023/01/25 06:34:58;;;;;;;28.48;16.92;;;;;;;8.51;53.08;101461.50;4258308;33;34287;-82
2023/01/25 06:37:26;;;;;;;29.48;15.90;;;;;;;7.82;55.12;101468.78;4257667;33;33522;-83
2023/01/25 06:39:53;;;;;;;29.95;16.08;;;;;;;7.82;55.39;101471.34;4256819;33;33675;-81
2023/01/25 06:42:23;;;;;;;30.67;15.82;;;;;;;7.87;55.11;101476.12;4246090;33;33830;-82
2023/01/25 06:44:51;;;;;;;30.15;17.02;;;;;;;8.03;54.84;101467.94;4260446;33;35741;-81
2023/01/25 06:47:18;;;;;;;31.87;17.37;;;;;;;7.39;55.99;101479.00;4258396;33;33977;-85
2023/01/25 06:49:47;;;;;;;33.42;17.10;;;;;;;6.98;57.44;101472.91;4260766;33;33500;-84
2023/01/25 06:52:14;;;;;;;32.25;16.75;;;;;;;6.65;58.38;101470.13;4260635;33;33593;-84
2023/01/25 06:54:42;;;;;;;34.42;17.20;;;;;;;7.94;55.15;101464.66;4260706;33;33988;-84
2023/01/25 06:57:10;;;;;;;29.65;17.08;;;;;;;7.87;54.67;101470.97;4260321;33;33836;-82
2023/01/25 06:59:38;;;;;;;32.97;17.23;;;;;;;6.45;58.90;101467.47;4260925;33;33983;-84
2023/01/25 07:02:06;;;;;;;36.20;18.25;;;;;;;5.16;63.40;101476.34;4260560;33;34576;-83
2023/01/25 07:04:34;;;;;;;35.58;18.65;;;;;;;4.24;68.59;101473.69;4260324;33;34430;-80
2023/01/25 07:07:02;;;;;;;28.30;16.90;;;;;;;5.22;65.98;101475.28;4246057;33;33453;-84
2023/01/25 07:09:29;;;;;;;31.08;17.45;;;;;;;5.83;63.74;101471.37;4260489;33;33371;-82
2023/01/25 07:11:57;;;;;;;32.30;17.00;;;;;;;5.70;64.31;101475.41;4239534;33;231124;-82
2023/01/25 07:14:25;;;;;;;35.75;18.62;;;;;;;6.10;63.08;101478.13;4258738;33;33023;-81
2023/01/25 07:16:52;;;;;;;33.97;18.65;;;;;;;6.30;62.62;101470.50;4260708;33;33862;-82
2023/01/25 07:19:19;;;;;;;31.62;18.42;;;;;;;7.09;60.26;101467.91;4259920;33;33594;-83
2023/01/25 07:21:47;;;;;;;33.33;17.62;;;;;;;7.65;58.52;101470.00;4260217;33;34009;-84
2023/01/25 07:24:17;;;;;;;31.70;17.70;;;;;;;8.04;57.46;101466.31;4257406;33;33517;-81
2023/01/25 07:26:46;;;;;;;30.12;17.85;;;;;;;6.47;61.11;101459.12;4246153;33;33740;-83
2023/01/25 07:29:15;;;;;;;35.22;18.85;;;;;;;8.02;57.74;101467.84;4257248;33;33133;-83
2023/01/25 07:31:42;;;;;;;31.77;18.48;;;;;;;8.11;57.51;101459.94;4242821;33;34820;-84
2023/01/25 07:34:11;;;;;;;33.28;18.70;;;;;;;7.99;58.13;101465.91;4256799;33;35084;-81
2023/01/25 07:36:40;;;;;;;30.35;17.05;;;;;;;8.36;56.84;101461.13;4242117;33;33688;-83
2023/01/25 07:39:11;;;;;;;34.25;17.40;;;;;;;8.55;56.47;101465.22;4257250;33;33521;-83
2023/01/25 07:41:40;;;;;;;33.75;18.52;;;;;;;8.78;55.87;101470.53;4255850;33;35263;-83
2023/01/25 07:44:10;;;;;;;28.92;17.27;;;;;;;8.88;55.83;101472.16;4245366;33;32896;-83
2023/01/25 07:46:38;;;;;;;28.55;16.60;;;;;;;9.73;53.61;101463.09;4257291;33;33834;-84
2023/01/25 07:49:06;;;;;;;33.20;17.02;;;;;;;9.99;52.77;101460.75;4244647;33;34121;-84
2023/01/25 07:51:33;;;;;;;33.97;17.02;;;;;;;8.44;56.38;101462.69;4256015;33;31882;-81
2023/01/25 07:54:03;;;;;;;30.73;16.65;;;;;;;7.98;57.73;101468.38;4256689;33;33931;-83
2023/01/25 07:56:33;;;;;;;33.78;18.15;;;;;;;7.94;57.67;101467.22;4256540;33;35155;-80
2023/01/25 07:59:01;;;;;;;32.60;16.50;;;;;;;7.63;59.11;101467.28;4243061;33;32528;-82
2023/01/25 08:01:32;;;;;;;29.85;15.90;;;;;;;9.65;53.28;101458.22;4255685;33;33442;-82
2023/01/25 08:04:02;;;;;;;31.87;16.65;;;;;;;9.55;53.76;101463.50;4256858;33;34550;-84
2023/01/25 08:06:34;;;;;;;29.63;16.52;;;;;;;10.10;52.29;101458.03;4257472;33;33637;-84
2023/01/25 08:09:06;;;;;;;29.42;16.23;;;;;;;10.63;51.26;101458.44;4256989;33;33081;-80
2023/01/25 08:11:34;;;;;;;29.23;17.42;;;;;;;10.30;52.15;101462.09;4256215;33;33612;-82
2023/01/25 08:14:02;;;;;;;32.58;17.58;;;;;;;9.82;53.40;101461.19;4256239;33;33717;-82
2023/01/25 08:16:32;;;;;;;28.38;16.75;;;;;;;8.94;56.00;101461.38;4243942;33;32409;-80
2023/01/25 08:19:01;;;;;;;27.77;15.65;;;;;;;9.02;55.84;101465.47;4257346;33;33441;-81
2023/01/25 08:21:32;;;;;;;33.33;16.55;;;;;;;8.56;57.29;101459.31;4256748;33;32960;-82
2023/01/25 08:24:05;;;;;;;34.22;17.60;;;;;;;8.50;57.66;101454.53;4255650;33;33479;-80
2023/01/25 08:26:34;;;;;;;31.23;17.70;;;;;;;7.74;60.34;101467.25;4255355;33;33988;-84
2023/01/25 08:29:02;;;;;;;29.98;16.52;;;;;;;8.39;58.83;101463.97;4247239;33;34281;-81
2023/01/25 08:31:32;;;;;;;28.25;15.68;;;;;;;9.54;55.56;101459.12;4257982;33;33220;-79
2023/01/25 08:34:00;;;;;;;28.70;15.70;;;;;;;9.59;55.28;101462.06;4260600;33;33486;-84
2023/01/25 08:36:28;;;;;;;28.73;16.48;;;;;;;9.30;56.67;101463.31;4260381;33;34190;-83
2023/01/25 08:39:01;;;;;;;37.78;16.20;;;;;;;10.17;54.36;101456.00;4260474;33;33436;-82
2023/01/25 08:41:30;;;;;;;30.20;17.58;;;;;;;9.39;56.12;101457.97;4246879;33;33734;-81
2023/01/25 08:43:58;;;;;;;37.83;18.17;;;;;;;9.01;57.76;101453.34;4246258;33;34664;-79
2023/01/25 08:46:28;;;;;;;31.52;17.98;;;;;;;10.15;54.64;101451.50;4260423;33;33695;-83
2023/01/25 08:49:00;;;;;;;30.83;16.23;;;;;;;9.71;56.03;101446.53;4247385;33;33589;-80
2023/01/25 08:51:28;;;;;;;26.55;14.75;;;;;;;8.38;60.04;101444.09;4247421;33;33842;-81
2023/01/25 08:53:56;;;;;;;23.67;13.43;;;;;;;8.80;58.52;101440.53;4260016;33;33823;-81
2023/01/25 08:56:24;;;;;;;25.15;13.77;;;;;;;8.60;59.24;101438.09;4259601;33;33690;-84
2023/01/25 08:58:51;;;;;;;27.80;14.93;;;;;;;9.41;57.29;101435.72;4261061;33;34070;-81
2023/01/25 09:01:19;;;;;;;25.12;13.40;;;;;;;10.28;55.23;101432.59;4257792;33;33751;-81
2023/01/25 09:03:49;;;;;;;26.25;13.93;;;;;;;10.36;54.94;101434.97;4260659;33;34807;-81
2023/01/25 09:06:17;;;;;;;25.77;14.45;;;;;;;10.85;53.92;101434.03;4246248;33;34788;-83
2023/01/25 09:08:44;;;;;;;24.05;12.32;;;;;;;10.75;54.10;101423.03;4259544;33;34548;-82
2023/01/25 09:11:14;;;;;;;22.25;11.23;;;;;;;10.65;54.20;101425.78;4264103;33;33838;-84
2023/01/25 09:13:42;;;;;;;24.05;11.68;;;;;;;10.86;53.57;101426.37;4259466;33;33904;-80
2023/01/25 09:16:12;;;;;;;25.50;11.70;;;;;;;10.62;53.95;101430.72;4259782;33;33565;-84
2023/01/25 09:18:42;;;;;;;20.60;10.65;;;;;;;10.78;53.53;101422.34;4260351;33;33594;-83
2023/01/25 09:21:13;;;;;;;22.00;10.43;;;;;;;10.70;53.51;101429.59;4246127;33;33936;-81
2023/01/25 09:23:43;;;;;;;20.98;9.90;;;;;;;10.78;53.46;101418.06;4260252;33;34364;-82
2023/01/25 09:26:25;;;;;;;16.52;9.00;;;;;;;10.30;54.20;101421.56;4259077;33;34393;-80
2023/01/25 09:28:53;;;;;;;16.85;9.32;;;;;;;10.52;53.72;101417.91;4247386;33;33149;-82
2023/01/25 09:31:21;;;;;;;18.60;9.70;;;;;;;10.27;54.15;101416.13;4258833;33;33685;-80
2023/01/25 09:33:51;;;;;;;18.92;9.48;;;;;;;10.60;52.99;101416.75;4247066;33;32760;-81
2023/01/25 09:36:20;;;;;;;18.05;9.40;;;;;;;10.79;52.90;101424.13;4259705;33;33809;-84
2023/01/25 09:38:47;;;;;;;20.20;9.93;;;;;;;10.52;53.27;101417.91;4260104;33;33361;-84
2023/01/25 09:41:27;;;;;;;19.48;11.10;;;;;;;10.57;52.81;101416.56;4260297;33;33655;-83
2023/01/25 09:44:19;;;;;;;18.87;9.98;;;;;;;10.86;52.00;101409.94;4259796;33;34742;-81
2023/01/25 09:46:55;;;;;;;17.35;10.32;;;;;;;10.11;53.31;101408.06;4258763;33;34990;-79
2023/01/25 09:49:40;;;;;;;16.50;9.68;;;;;;;9.51;55.58;101416.59;4246086;33;34102;-79
2023/01/25 09:52:47;;;;;;;16.33;8.53;;;;;;;10.49;53.04;101404.72;4255056;33;34121;-81
2023/01/25 09:55:17;;;;;;;16.52;9.13;;;;;;;10.31;53.13;101400.03;4258773;33;33553;-79
2023/01/25 09:57:47;;;;;;;20.98;9.77;;;;;;;10.98;51.52;101396.09;4255841;33;34414;-84
2023/01/25 10:00:22;;;;;;;17.00;9.18;;;;;;;10.78;51.77;101392.16;4249883;33;34514;-83
2023/01/25 10:02:57;;;;;;;18.40;9.98;;;;;;;10.82;52.13;101383.78;4259815;33;34446;-85
2023/01/25 10:05:28;;;;;;;18.80;9.65;;;;;;;10.76;52.46;101388.53;4252922;33;33263;-81
2023/01/25 10:08:01;;;;;;;20.35;11.43;;;;;;;10.79;52.19;101380.06;4250294;33;33861;-83
2023/01/25 10:10:34;;;;;;;18.42;10.10;;;;;;;10.40;52.82;101374.81;4256014;33;33341;-85
2023/01/25 10:13:02;;;;;;;20.08;10.77;;;;;;;10.14;53.44;101377.19;4257574;33;33829;-81
2023/01/25 10:15:33;;;;;;;18.95;10.75;;;;;;;10.30;53.17;101367.19;4257862;33;33466;-82
2023/01/25 10:18:20;;;;;;;19.05;10.82;;;;;;;11.07;50.92;101364.72;4248381;33;34321;-83
2023/01/25 10:21:03;;;;;;;19.45;10.45;;;;;;;11.13;51.16;101354.75;4236246;33;33267;-84
2023/01/25 10:23:34;;;;;;;19.27;10.13;;;;;;;10.59;52.37;101353.69;4247782;33;33789;-82
2023/01/25 10:26:22;;;;;;;22.33;11.57;;;;;;;10.86;52.05;101360.69;4259716;33;34015;-82
2023/01/25 10:28:58;;;;;;;20.60;11.10;;;;;;;11.17;51.15;101346.38;4253446;33;34681;-84
2023/01/25 10:31:45;;;;;;;20.42;10.57;;;;;;;11.44;50.08;101346.44;4257285;33;33779;-83
2023/01/25 10:34:25;;;;;;;19.23;11.05;;;;;;;11.08;50.59;101334.50;4260805;33;33984;-85
2023/01/25 10:36:55;;;;;;;19.45;11.07;;;;;;;10.29;52.87;101352.37;4248144;33;34117;-84
2023/01/25 10:39:23;;;;;;;21.02;11.90;;;;;;;10.29;53.06;101343.72;4260462;33;34566;-82
2023/01/25 10:42:04;;;;;;;22.13;11.30;;;;;;;10.60;52.54;101339.03;4260793;33;33070;-84
2023/01/25 10:44:33;;;;;;;19.08;11.05;;;;;;;11.07;51.26;101331.00;4260662;33;34542;-83
2023/01/25 10:47:30;;;;;;;21.70;11.18;;;;;;;10.91;51.33;101335.94;4260610;33;33591;-81
2023/01/25 10:49:58;;;;;;;20.42;10.70;;;;;;;10.16;52.97;101337.69;4247437;33;33669;-81
2023/01/25 10:52:29;;;;;;;20.48;11.15;;;;;;;10.07;53.23;101328.37;4263992;33;33139;-82
2023/01/25 10:55:29;;;;;;;24.05;12.00;;;;;;;10.89;51.26;101327.16;4247880;33;34370;-85
2023/01/25 10:57:57;;;;;;;19.95;11.73;;;;;;;10.20;52.73;101331.03;4231275;33;34339;-81
2023/01/25 11:00:27;;;;;;;19.17;10.90;;;;;;;10.63;51.75;101326.28;4259739;33;33467;-80
2023/01/25 11:02:57;;;;;;;21.67;11.23;;;;;;;10.80;51.04;101327.44;4257112;33;33251;-82
2023/01/25 11:05:35;;;;;;;21.23;11.32;;;;;;;10.78;50.80;101324.75;4258038;33;34665;-82
2023/01/25 11:08:21;;;;;;;20.50;10.50;;;;;;;10.71;51.27;101321.63;4254536;33;34001;-82
2023/01/25 11:10:51;;;;;;;22.85;11.88;;;;;;;10.88;51.07;101309.84;4259917;33;33572;-83
2023/01/25 11:13:30;;;;;;;21.73;11.63;;;;;;;11.12;50.63;101295.88;4242581;33;34021;-83
2023/01/25 11:16:03;;;;;;;20.98;11.75;;;;;;;10.72;51.58;101303.59;4245377;33;33993;-83
2023/01/25 11:18:33;;;;;;;18.90;10.90;;;;;;;11.23;50.19;101300.91;4257278;33;34652;-83
2023/01/25 11:21:10;;;;;;;19.20;10.32;;;;;;;10.78;51.09;101293.66;4248249;33;33755;-81
2023/01/25 11:23:38;;;;;;;19.37;11.45;;;;;;;10.75;51.10;101298.59;4247825;33;33413;-82
2023/01/25 11:26:13;;;;;;;22.67;11.63;;;;;;;10.58;51.50;101292.28;4259585;33;33794;-82
2023/01/25 11:28:43;;;;;;;20.30;11.38;;;;;;;10.58;51.30;101283.59;4259993;33;34598;-81
2023/01/25 11:31:13;;;;;;;23.55;11.40;;;;;;;11.09;50.32;101285.34;4259564;33;33881;-81
2023/01/25 11:33:41;;;;;;;23.15;11.80;;;;;;;11.00;50.46;101274.34;4260413;33;33343;-82